< < Back
Terminal Aerodrome Forecast


Current Version              Previous Versions:   1  2  3  4  5  6  7  8  9  

Terminal Aerodrome Forecast

548
FTUS42 KJAX 240500
TAFJAX
TAF
KJAX 240520Z 2406/2506 00000KT P6SM SCT060
      TEMPO 2408/2412 3SM BR
     FM241500 12007KT P6SM SCT040
     FM241900 14010KT P6SM BKN050=

Latest METAR

137
SAUS80 KWBC 242300 CCA
MTRJAX
METAR KJAX 242256Z 11007KT 10SM SCT050 SCT090 26/18 A2993 RMK AO2 SLP136
T02560183


USA.gov is the U.S. government's official web portal to all federal, state and local government web resources and services.